ADDS METAR Data INFO
IDs: Format: Raw Decoded Include TAF

Data at: 0718 UTC 24 Jun 2018

KPIE 240653Z 28003KT 10SM CLR 27/25 A3001 RMK AO2 SLP161 T02670250
KPIE 240553Z 18003KT 10SM FEW025 27/25 A3002 RMK AO2 SLP166 T02670250 10300 20267 50000
KPIE 240453Z 00000KT 10SM FEW026 FEW036 27/25 A3004 RMK AO2 SLP171 T02720250 403220256
KPIE 240353Z 28003KT 10SM CLR 27/24 A3004 RMK AO2 SLP171 T02720244
KPIE 240253Z 27004KT 10SM CLR 28/25 A3002 RMK AO2 SLP165 T02780250 53005
KPIE 240153Z 28005KT 10SM CLR 28/24 A3000 RMK AO2 SLP158 T02830244
KPIE 240053Z 30005KT 10SM CLR 28/24 A3000 RMK AO2 SLP157 T02830244
KPIE 232353Z 30008KT 10SM CLR 30/24 A3000 RMK AO2 SLP160 T03000239 10322 20300 53002
KPIE 232253Z 32009KT 10SM FEW031 31/24 A2999 RMK AO2 SLP155 T03110239
KPIE 232153Z 30011KT 10SM CLR 31/24 A3000 RMK AO2 SLP157 T03110244
KPIE 232053Z 31009KT 10SM SCT037 SCT045 31/24 A3000 RMK AO2 SLP158 T03060239 56008
KPIE 231953Z AUTO VRB06G15KT 10SM FEW036 SCT044 32/24 A3000 RMK AO2 SLP160 T03170239
KPIE 231853Z AUTO 28011KT 10SM FEW035 32/24 A3001 RMK AO2 SLP163 T03220239
KPIE 231753Z 30009KT 10SM SCT038 32/23 A3002 RMK AO2 SLP166 T03170233 10322 20278 58005
KPIE 231653Z 30010KT 10SM FEW033 32/23 A3003 RMK AO2 SLP168 T03170233
KPIE 231553Z COR 27007KT 10SM SCT024 32/23 A3003 RMK AO2 SLP170 T03170233
KPIE 231453Z 29009KT 10SM SCT033 31/23 A3004 RMK AO2 SLP171 T03060233 53008
KPIE 231353Z 29007KT 10SM SCT026 30/24 A3002 RMK AO2 SLP167 T03000239
KPIE 231253Z COR 27009KT 10SM FEW026 29/24 A3002 RMK AO2 SLP165 T02940244
KPIE 231153Z 24006KT 10SM SCT021 28/25 A3001 RMK AO2 SLP163 T02780250 10278 20256 53016
KPIE 231053Z 20003KT 10SM FEW022 SCT027 26/25 A2999 RMK AO2 SLP156 T02560250
KPIE 230953Z 24003KT 10SM CLR 27/24 A2998 RMK AO2 SLP151 T02670244
KPIE 230853Z AUTO 22003KT 10SM CLR 26/24 A2997 RMK AO2 SLP148 T02610244 56005
KPIE 230753Z AUTO 26003KT 10SM CLR 27/24 A2997 RMK AO2 SLP150 T02670244
KPIE 230653Z AUTO 22004KT 10SM CLR 27/25 A2997 RMK AO2 SLP148 T02670250
KPIE 230553Z AUTO 25005KT 10SM CLR 27/25 A2998 RMK AO2 SLP153 T02720250 10294 20272 58004
KPIE 230453Z AUTO 26004KT 10SM CLR 27/25 A2999 RMK AO2 SLP156 T02720250 403220256
KPIE 230353Z AUTO 27006KT 10SM CLR 28/26 A2999 RMK AO2 SLP157 T02780256
KPIE 230253Z 25004KT 10SM CLR 28/26 A2999 RMK AO2 SLP156 T02780256 53016
KPIE 230153Z 26004KT 10SM CLR 28/25 A2997 RMK AO2 SLP150 T02780250
KPIE 230053Z 29007KT 10SM CLR 28/25 A2996 RMK AO2 SLP144 T02830250
KPIE 222353Z 28009KT 10SM FEW027 29/24 A2995 RMK AO2 SLP141 T02890244 10322 20289 55001
KPIE 222253Z 27010KT 10SM SCT032 31/24 A2994 RMK AO2 SLP140 T03060244
KPIE 222153Z 27010KT 10SM FEW031 31/24 A2995 RMK AO2 SLP140 T03110244
KPIE 222053Z 26011KT 10SM FEW038 32/23 A2995 RMK AO2 SLP142 T03170233 56012
KPIE 221953Z 26010KT 10SM FEW035 32/24 A2996 RMK AO2 SLP146 T03170239